Time;durP1;ratioP1;P1;durP2;ratioP2;P2;SDS_P1;SDS_P2;PMS_P1;PMS_P2;Temp;Humidity;BMP_temperature;BMP_pressure;BME280_temperature;BME280_humidity;BME280_pressure;Samples;Min_cycle;Max_cycle;Signal;HPM_P1;HPM_P2
2023/05/26 00:04:31;;;;;;;12.00;7.50;;;;;;;14.72;66.86;100410.52;218429;1254;140101;-72
2023/05/26 00:09:34;;;;;;;11.90;7.20;;;;;;;14.65;67.00;100413.96;218709;1254;140873;-72
2023/05/26 00:14:37;;;;;;;9.20;7.00;;;;;;;14.62;67.53;100417.83;218451;1258;140051;-72
2023/05/26 00:19:39;;;;;;;8.30;6.20;;;;;;;14.63;67.78;100416.92;218103;1258;139697;-71
2023/05/26 00:24:43;;;;;;;11.40;6.50;;;;;;;14.63;67.93;100419.57;219317;1256;142949;-71
2023/05/26 00:29:47;;;;;;;10.10;6.60;;;;;;;14.65;68.13;100422.61;218275;1254;140998;-70
2023/05/26 00:34:51;;;;;;;8.00;5.80;;;;;;;14.68;68.28;100426.71;218700;1254;141586;-66
2023/05/26 00:39:54;;;;;;;8.90;5.70;;;;;;;14.71;68.20;100423.33;219345;1253;140366;-71
2023/05/26 00:44:57;;;;;;;8.00;6.20;;;;;;;14.73;68.57;100427.91;220863;1255;140420;-72
2023/05/26 00:50:01;;;;;;;8.60;6.10;;;;;;;14.78;68.54;100430.15;220830;1258;139949;-72
2023/05/26 00:55:06;;;;;;;11.40;7.30;;;;;;;14.85;68.43;100429.55;220755;1254;140493;-71
2023/05/26 01:00:11;;;;;;;11.00;6.40;;;;;;;14.91;68.65;100426.70;219051;1254;139799;-68
2023/05/26 01:05:15;;;;;;;9.90;5.40;;;;;;;14.95;68.54;100422.09;218803;1255;140711;-70
2023/05/26 01:10:19;;;;;;;9.20;6.20;;;;;;;14.97;68.58;100423.62;219112;1258;141962;-70
2023/05/26 01:15:26;;;;;;;7.60;5.90;;;;;;;14.99;68.52;100423.26;218114;1254;140362;-69
2023/05/26 01:20:48;;;;;;;7.70;5.50;;;;;;;15.00;68.70;100425.15;218731;1254;140748;-70
2023/05/26 01:26:19;;;;;;;7.10;6.40;;;;;;;14.99;68.65;100419.40;218117;1259;141372;-71
2023/05/26 01:31:23;;;;;;;6.80;5.70;;;;;;;14.98;68.85;100423.14;218619;1254;140298;-70
2023/05/26 01:36:29;;;;;;;9.90;5.90;;;;;;;14.98;68.91;100418.20;218700;1254;139841;-69
2023/05/26 01:41:54;;;;;;;8.00;5.90;;;;;;;14.96;68.82;100419.91;218670;1257;144129;-70
2023/05/26 01:46:57;;;;;;;8.10;5.70;;;;;;;14.96;68.89;100420.29;218364;1254;140918;-70
2023/05/26 01:52:07;;;;;;;7.80;5.60;;;;;;;14.95;68.84;100421.56;218672;1254;141069;-70
2023/05/26 01:57:11;;;;;;;10.10;5.10;;;;;;;14.93;68.77;100415.77;218322;1258;139939;-72
2023/05/26 02:02:16;;;;;;;10.80;4.70;;;;;;;14.90;68.90;100411.55;218950;1254;140231;-72
2023/05/26 02:07:20;;;;;;;6.20;5.20;;;;;;;14.88;68.83;100416.89;218251;1257;140811;-70
2023/05/26 02:12:24;;;;;;;7.90;4.40;;;;;;;14.84;68.63;100422.52;218141;1258;139693;-70
2023/05/26 02:17:28;;;;;;;7.50;5.50;;;;;;;14.78;68.57;100423.55;219478;1254;139775;-71
2023/05/26 02:22:32;;;;;;;10.90;6.00;;;;;;;14.73;68.25;100427.75;220001;1254;139696;-71
2023/05/26 02:27:35;;;;;;;6.20;5.20;;;;;;;14.68;68.07;100427.14;218593;1258;139957;-70
2023/05/26 02:32:38;;;;;;;8.50;5.30;;;;;;;14.62;67.78;100428.30;219984;1254;140141;-69
2023/05/26 02:37:42;;;;;;;5.90;4.90;;;;;;;14.53;67.72;100424.34;220847;1259;139341;-70
2023/05/26 02:42:44;;;;;;;10.80;5.80;;;;;;;14.43;67.62;100421.75;220727;1255;139998;-70
2023/05/26 02:47:48;;;;;;;8.20;3.80;;;;;;;14.35;67.60;100415.49;220915;1254;139843;-72
2023/05/26 02:52:51;;;;;;;10.70;5.90;;;;;;;14.30;67.56;100421.98;219459;1258;140150;-71
2023/05/26 02:57:55;;;;;;;8.10;4.70;;;;;;;14.22;67.47;100426.85;219697;1257;140689;-70
2023/05/26 03:02:58;;;;;;;6.50;4.80;;;;;;;14.14;67.46;100427.40;219345;1254;141534;-70
2023/05/26 03:08:03;;;;;;;5.70;5.20;;;;;;;14.06;67.67;100425.11;218128;1254;140928;-71
2023/05/26 03:13:08;;;;;;;5.10;4.40;;;;;;;13.99;67.81;100427.14;218966;1253;140011;-70
2023/05/26 03:18:13;;;;;;;12.50;5.80;;;;;;;13.95;67.98;100434.83;218264;1254;140345;-70
2023/05/26 03:23:17;;;;;;;7.40;4.00;;;;;;;13.94;68.04;100435.77;219384;1254;140096;-71
2023/05/26 03:28:20;;;;;;;7.20;5.00;;;;;;;13.91;68.13;100441.29;218752;1254;140372;-70
2023/05/26 03:33:22;;;;;;;5.90;4.30;;;;;;;13.89;68.42;100441.95;219176;1258;139849;-69
2023/05/26 03:38:24;;;;;;;6.30;5.20;;;;;;;13.86;68.62;100449.27;218475;1254;139626;-69
2023/05/26 03:43:28;;;;;;;4.90;3.90;;;;;;;13.83;68.59;100442.40;218173;1254;139683;-70
2023/05/26 03:48:31;;;;;;;11.30;4.70;;;;;;;13.83;68.63;100439.52;218503;1254;140913;-69
2023/05/26 03:53:34;;;;;;;6.20;4.30;;;;;;;13.84;68.69;100442.22;218528;1254;139893;-69
2023/05/26 03:58:38;;;;;;;12.80;5.70;;;;;;;13.84;68.64;100448.45;218525;1255;139135;-69
2023/05/26 04:03:41;;;;;;;12.40;4.70;;;;;;;13.78;68.83;100454.54;218107;1255;139879;-69
2023/05/26 04:08:49;;;;;;;9.30;6.10;;;;;;;13.74;68.89;100456.41;218811;1259;140626;-68
2023/05/26 04:13:53;;;;;;;7.30;5.30;;;;;;;13.74;69.15;100460.50;218103;1254;139582;-70
2023/05/26 04:18:56;;;;;;;9.90;5.50;;;;;;;13.79;69.44;100456.38;218841;1254;140437;-69
2023/05/26 04:23:59;;;;;;;6.60;4.20;;;;;;;13.88;69.39;100461.23;218552;1258;140088;-67
2023/05/26 04:29:02;;;;;;;5.30;4.60;;;;;;;14.02;69.65;100465.14;219926;1254;140624;-69
2023/05/26 04:34:06;;;;;;;10.70;4.80;;;;;;;14.33;69.41;100470.05;217933;1254;139917;-70
2023/05/26 04:39:09;;;;;;;9.80;5.50;;;;;;;15.03;68.88;100468.44;218395;1259;139688;-68
2023/05/26 04:44:12;;;;;;;13.60;5.60;;;;;;;15.48;68.30;100470.08;220931;1254;140370;-71
2023/05/26 04:49:16;;;;;;;10.00;5.70;;;;;;;15.94;67.51;100471.84;220572;1254;140152;-70
2023/05/26 04:54:21;;;;;;;6.90;5.40;;;;;;;16.31;66.93;100464.21;219175;1257;141115;-68
2023/05/26 04:59:26;;;;;;;9.00;5.10;;;;;;;16.55;66.23;100463.37;218273;1258;141987;-70
2023/05/26 05:04:28;;;;;;;7.50;4.30;;;;;;;17.91;64.48;100464.73;218962;1254;140664;-72
2023/05/26 05:09:30;;;;;;;10.80;5.00;;;;;;;19.08;62.76;100462.03;219320;1254;139637;-68
2023/05/26 05:14:33;;;;;;;11.90;4.70;;;;;;;19.61;61.35;100459.46;218314;1257;140468;-69
2023/05/26 05:19:37;;;;;;;8.60;5.40;;;;;;;20.45;59.30;100460.17;218473;1254;140248;-67
2023/05/26 05:24:40;;;;;;;9.40;4.40;;;;;;;21.17;57.87;100462.60;218020;1258;139476;-73
2023/05/26 05:29:43;;;;;;;8.40;4.60;;;;;;;22.07;56.28;100460.16;218714;1253;138711;-70
2023/05/26 05:34:47;;;;;;;10.20;5.10;;;;;;;23.26;54.27;100456.95;218299;1254;140728;-68
2023/05/26 05:39:50;;;;;;;9.40;4.40;;;;;;;24.37;52.51;100465.46;218080;1253;140222;-69
2023/05/26 05:44:53;;;;;;;9.80;5.00;;;;;;;25.41;50.81;100475.73;218533;1258;140339;-74
2023/05/26 05:49:56;;;;;;;10.90;4.40;;;;;;;26.39;49.21;100473.52;218322;1254;139966;-65
2023/05/26 05:54:59;;;;;;;7.70;4.50;;;;;;;27.07;47.70;100472.01;218769;1254;140424;-69
2023/05/26 06:00:07;;;;;;;8.00;5.30;;;;;;;27.54;45.84;100474.38;217955;1254;138894;-69
2023/05/26 06:05:11;;;;;;;7.20;4.40;;;;;;;28.03;44.84;100477.44;218766;1254;139798;-70
2023/05/26 06:10:15;;;;;;;7.60;4.60;;;;;;;28.29;43.60;100489.31;218507;1257;138953;-71
2023/05/26 06:15:19;;;;;;;6.70;3.60;;;;;;;28.44;43.14;100487.60;218094;1254;139992;-69
2023/05/26 06:20:21;;;;;;;4.70;3.80;;;;;;;28.24;42.49;100493.59;218777;1254;139339;-68
2023/05/26 06:25:25;;;;;;;8.20;4.20;;;;;;;28.12;41.97;100497.31;219367;1254;139624;-69
2023/05/26 06:30:29;;;;;;;7.90;4.30;;;;;;;27.54;41.59;100498.33;220764;1254;138990;-70
2023/05/26 06:35:33;;;;;;;15.60;4.20;;;;;;;27.53;41.71;100499.86;220870;1254;139383;-71
2023/05/26 06:40:36;;;;;;;5.00;4.50;;;;;;;27.43;41.50;100501.62;220833;1254;139521;-70
2023/05/26 06:45:39;;;;;;;8.40;4.30;;;;;;;26.86;41.27;100509.98;220845;1254;140469;-69
2023/05/26 06:50:41;;;;;;;10.40;4.50;;;;;;;26.76;41.54;100512.92;220716;1254;139373;-69
2023/05/26 06:55:44;;;;;;;6.60;3.90;;;;;;;26.47;41.55;100520.45;219920;1254;140033;-68
2023/05/26 07:01:01;;;;;;;8.30;5.00;;;;;;;26.79;41.46;100523.51;217936;1257;140608;-67
2023/05/26 07:06:04;;;;;;;10.40;5.00;;;;;;;27.29;40.90;100522.80;219567;1254;139258;-68
2023/05/26 07:11:09;;;;;;;9.80;4.00;;;;;;;27.15;40.77;100522.42;218463;1254;138993;-67
2023/05/26 07:16:12;;;;;;;10.40;4.40;;;;;;;27.63;40.82;100516.37;218603;1254;139351;-68
2023/05/26 07:21:18;;;;;;;15.30;3.80;;;;;;;27.75;40.79;100518.44;218085;1257;139063;-69
2023/05/26 07:26:23;;;;;;;7.60;4.00;;;;;;;27.42;40.92;100520.31;219106;1254;139682;-68
2023/05/26 07:31:26;;;;;;;10.80;5.10;;;;;;;27.24;40.61;100522.19;218289;1253;139745;-66
2023/05/26 07:36:32;;;;;;;9.90;4.50;;;;;;;27.13;40.78;100530.56;218075;1254;139043;-66
2023/05/26 07:41:35;;;;;;;11.40;4.30;;;;;;;27.03;41.34;100530.98;218642;1254;138787;-67
2023/05/26 07:46:40;;;;;;;12.30;5.30;;;;;;;27.01;40.84;100531.70;217994;1254;139026;-67
2023/05/26 07:51:46;;;;;;;7.90;4.80;;;;;;;26.72;40.49;100532.43;218610;1254;139462;-66
2023/05/26 07:56:50;;;;;;;;;;;;;;;26.48;41.06;100536.33;218705;1254;139294;-67
2023/05/26 08:01:54;;;;;;;9.80;4.10;;;;;;;26.45;41.70;100537.88;218606;1254;125270;-67
2023/05/26 08:06:57;;;;;;;7.30;3.40;;;;;;;26.36;41.04;100542.14;218068;1257;139319;-67
2023/05/26 08:12:00;;;;;;;5.50;3.20;;;;;;;25.98;41.40;100547.11;217785;1257;139563;-66
2023/05/26 08:17:04;;;;;;;8.40;3.80;;;;;;;25.77;41.19;100542.95;218654;1254;139788;-67
2023/05/26 08:22:08;;;;;;;6.60;3.60;;;;;;;25.80;41.70;100537.77;218000;1254;230932;-67
2023/05/26 08:27:10;;;;;;;8.10;3.80;;;;;;;25.82;41.36;100539.35;219696;1254;139512;-69
2023/05/26 08:32:15;;;;;;;7.60;3.40;;;;;;;25.75;41.32;100536.59;220882;1254;139284;-69
2023/05/26 08:37:18;;;;;;;5.70;3.10;;;;;;;25.66;41.25;100535.20;219191;1254;141094;-71
2023/05/26 08:42:23;;;;;;;7.60;4.00;;;;;;;25.63;41.22;100530.56;218118;1257;139132;-70
2023/05/26 08:47:37;;;;;;;5.90;3.60;;;;;;;25.42;40.87;100528.89;219299;1253;139654;-69
2023/05/26 08:52:42;;;;;;;;;;;;;;;25.32;41.03;100526.92;218342;1254;139451;-69
2023/05/26 08:58:09;;;;;;;8.70;3.70;;;;;;;25.16;41.77;100524.55;218329;1257;125930;-69
2023/05/26 09:03:13;;;;;;;6.80;3.70;;;;;;;25.14;41.29;100519.69;217803;1257;139897;-67
2023/05/26 09:08:16;;;;;;;12.90;4.30;;;;;;;25.10;41.47;100513.35;218933;1254;139607;-69
2023/05/26 09:13:21;;;;;;;15.40;4.50;;;;;;;25.09;41.22;100509.48;218698;1255;140012;-68
2023/05/26 09:18:23;;;;;;;5.90;2.90;;;;;;;25.17;41.23;100512.40;217946;1259;139964;-68
2023/05/26 09:23:27;;;;;;;12.30;4.10;;;;;;;25.21;40.84;100509.15;218453;1256;138990;-68
2023/05/26 09:28:31;;;;;;;6.10;3.50;;;;;;;25.28;40.59;100509.66;217804;1257;139546;-69
2023/05/26 09:33:46;;;;;;;6.70;2.80;;;;;;;25.34;40.30;100510.27;218195;1254;140178;-69
2023/05/26 09:38:52;;;;;;;8.00;3.60;;;;;;;25.37;39.57;100511.57;218178;1256;139277;-68
2023/05/26 09:44:17;;;;;;;6.30;3.10;;;;;;;25.23;38.30;100502.38;217942;1257;140081;-69
2023/05/26 09:49:22;;;;;;;7.60;3.20;;;;;;;25.25;38.22;100503.35;220816;1253;141079;-69
2023/05/26 09:54:26;;;;;;;6.30;2.40;;;;;;;25.24;37.21;100506.17;218423;1256;1085158;-69
2023/05/26 09:59:38;;;;;;;10.50;3.10;;;;;;;25.27;36.67;100506.00;218054;1257;140112;-68
2023/05/26 10:04:42;;;;;;;10.20;3.20;;;;;;;25.08;36.13;100501.79;217847;1257;139330;-68
2023/05/26 10:09:49;;;;;;;;;;;;;;;25.09;36.11;100498.59;218011;1257;140266;-73
2023/05/26 10:14:54;;;;;;;10.90;3.40;;;;;;;25.07;36.26;100500.83;218244;1254;126004;-74
2023/05/26 10:20:01;;;;;;;7.80;2.60;;;;;;;25.14;35.92;100501.46;219229;1254;139190;-72
2023/05/26 10:25:23;;;;;;;6.40;3.40;;;;;;;25.08;36.23;100498.23;218899;1253;138853;-69
2023/05/26 10:30:28;;;;;;;7.70;3.10;;;;;;;25.22;36.54;100500.06;220966;1253;138975;-69
2023/05/26 10:35:32;;;;;;;6.30;2.70;;;;;;;25.29;36.35;100499.81;220656;1253;139332;-69
2023/05/26 10:40:44;;;;;;;8.30;3.60;;;;;;;25.33;35.63;100496.59;220705;1253;139889;-69
2023/05/26 10:46:02;;;;;;;4.60;2.80;;;;;;;25.18;34.88;100493.45;220789;1253;139513;-68
2023/05/26 10:51:14;;;;;;;7.70;3.20;;;;;;;25.11;35.07;100498.14;220646;1254;141703;-70
2023/05/26 10:56:18;;;;;;;4.80;2.60;;;;;;;24.98;34.90;100501.89;218117;1258;139034;-69
2023/05/26 11:01:26;;;;;;;5.80;2.80;;;;;;;24.92;34.98;100505.34;218994;1253;139229;-69
2023/05/26 11:06:50;;;;;;;7.80;3.10;;;;;;;24.80;34.85;100511.02;218078;1259;140429;-68
2023/05/26 11:11:58;;;;;;;10.20;3.60;;;;;;;24.80;34.63;100506.17;220391;1254;140544;-69
2023/05/26 11:17:04;;;;;;;6.30;3.00;;;;;;;24.82;34.79;100504.48;218204;1254;138992;-68
2023/05/26 11:22:10;;;;;;;10.90;3.10;;;;;;;24.88;34.66;100505.71;217954;1258;139396;-68
2023/05/26 11:27:14;;;;;;;5.30;2.90;;;;;;;24.81;34.62;100504.41;218126;1254;140271;-68
2023/05/26 11:32:19;;;;;;;7.20;3.40;;;;;;;24.84;35.04;100501.45;218525;1254;139375;-68
2023/05/26 11:37:26;;;;;;;15.80;3.20;;;;;;;24.59;34.65;100497.88;218027;1258;139366;-67
2023/05/26 11:42:34;;;;;;;9.00;2.40;;;;;;;24.53;35.12;100494.85;217833;1254;140717;-68
2023/05/26 11:47:38;;;;;;;8.10;3.60;;;;;;;24.42;34.70;100493.85;218246;1254;139763;-67
2023/05/26 11:52:43;;;;;;;7.70;3.00;;;;;;;24.32;34.98;100489.79;218621;1254;140018;-67
2023/05/26 11:57:47;;;;;;;12.50;3.30;;;;;;;24.25;35.22;100491.17;219470;1254;139137;-67
2023/05/26 12:02:51;;;;;;;8.00;2.80;;;;;;;24.38;35.18;100488.45;218631;1254;139316;-68
2023/05/26 12:08:07;;;;;;;7.20;2.60;;;;;;;24.37;35.18;100486.08;218259;1258;139336;-68
2023/05/26 12:13:12;;;;;;;12.10;3.10;;;;;;;24.36;35.54;100487.42;218345;1257;139696;-72
2023/05/26 12:18:22;;;;;;;7.00;2.40;;;;;;;24.43;35.69;100489.05;218317;1254;139805;-70
2023/05/26 12:23:26;;;;;;;7.40;3.20;;;;;;;24.38;35.86;100482.14;218924;1254;139669;-72
2023/05/26 12:28:29;;;;;;;11.90;3.80;;;;;;;24.34;36.16;100477.87;219051;1254;140390;-68
2023/05/26 12:33:32;;;;;;;7.90;3.40;;;;;;;24.29;36.15;100475.91;220829;1253;139989;-71
2023/05/26 12:38:42;;;;;;;3.20;2.80;;;;;;;24.27;36.12;100472.14;218237;1254;140036;-73
2023/05/26 12:43:45;;;;;;;8.80;3.10;;;;;;;24.18;36.07;100475.75;219959;1254;139577;-72
2023/05/26 12:48:47;;;;;;;10.20;3.30;;;;;;;24.06;36.18;100469.86;218392;1254;140065;-70
2023/05/26 12:53:50;;;;;;;7.10;2.60;;;;;;;23.90;36.22;100464.55;218950;1256;138920;-74
2023/05/26 12:58:55;;;;;;;7.00;3.10;;;;;;;23.91;36.13;100463.38;218387;1257;139991;-73
2023/05/26 13:04:17;;;;;;;7.70;3.00;;;;;;;23.89;35.96;100458.23;219092;1253;139038;-71
2023/05/26 13:09:22;;;;;;;9.40;3.50;;;;;;;23.88;35.71;100459.65;217634;1254;139281;-70
2023/05/26 13:14:25;;;;;;;11.10;2.80;;;;;;;23.79;35.68;100448.79;218039;1254;139749;-70
2023/05/26 13:19:27;;;;;;;5.70;3.10;;;;;;;23.77;36.03;100450.58;218083;1254;139672;-72
2023/05/26 13:24:30;;;;;;;6.80;3.70;;;;;;;23.77;35.55;100446.48;217813;1259;139408;-73
2023/05/26 13:29:35;;;;;;;8.90;2.70;;;;;;;23.67;35.24;100447.73;217954;1254;139393;-74
2023/05/26 13:34:38;;;;;;;6.70;2.60;;;;;;;23.45;34.80;100449.31;217991;1254;139747;-76
2023/05/26 13:39:42;;;;;;;4.90;2.70;;;;;;;23.33;34.92;100444.86;217703;1256;139058;-77
2023/05/26 13:44:45;;;;;;;4.30;2.60;;;;;;;23.20;34.88;100447.95;218163;1256;139734;-69
2023/05/26 13:49:49;;;;;;;5.60;1.90;;;;;;;23.18;34.74;100442.71;218037;1259;139856;-72
2023/05/26 13:54:52;;;;;;;3.20;2.50;;;;;;;23.07;34.44;100442.25;219074;1254;139992;-68
2023/05/26 13:59:55;;;;;;;3.60;2.70;;;;;;;23.10;34.62;100439.48;218402;1257;139954;-68
2023/05/26 14:04:58;;;;;;;8.70;2.80;;;;;;;23.16;34.59;100443.50;218376;1259;139550;-71
2023/05/26 14:10:03;;;;;;;17.20;3.40;;;;;;;23.11;34.56;100446.98;219679;1254;140744;-72
2023/05/26 14:15:07;;;;;;;7.90;3.10;;;;;;;22.80;34.67;100446.70;218710;1256;140568;-71
2023/05/26 14:20:12;;;;;;;4.90;2.90;;;;;;;22.56;34.55;100446.66;220725;1253;140610;-79
2023/05/26 14:25:38;;;;;;;8.30;3.20;;;;;;;22.42;34.71;100448.13;219978;1253;139968;-73
2023/05/26 14:30:44;;;;;;;4.50;2.80;;;;;;;22.53;34.96;100440.95;220802;1253;139248;-76
2023/05/26 14:35:54;;;;;;;7.70;2.60;;;;;;;22.55;34.54;100435.73;220475;1254;139936;-74
2023/05/26 14:40:58;;;;;;;9.80;2.70;;;;;;;22.47;34.24;100437.30;217984;1259;139355;-72
2023/05/26 14:46:03;;;;;;;6.00;2.70;;;;;;;22.47;34.11;100432.68;220061;1254;139379;-76
2023/05/26 14:51:07;;;;;;;7.20;2.90;;;;;;;22.41;33.86;100429.23;218090;1258;139244;-74
2023/05/26 14:56:15;;;;;;;5.00;2.40;;;;;;;22.41;33.92;100434.41;219042;1254;138877;-73
2023/05/26 15:01:22;;;;;;;5.20;2.50;;;;;;;22.37;33.47;100428.43;218598;1259;138868;-79
2023/05/26 15:06:25;;;;;;;7.00;2.70;;;;;;;22.29;33.37;100429.39;218879;1254;139675;-73
2023/05/26 15:11:30;;;;;;;9.20;3.40;;;;;;;22.14;33.44;100433.89;218767;1254;139627;-72
2023/05/26 15:16:44;;;;;;;12.30;3.10;;;;;;;22.03;33.51;100434.77;218206;1254;139584;-70
2023/05/26 15:21:53;;;;;;;3.70;2.80;;;;;;;21.95;33.25;100435.79;218886;1256;139622;-80
2023/05/26 15:26:58;;;;;;;7.30;3.30;;;;;;;21.78;33.19;100434.05;218588;1258;139269;-69
2023/05/26 15:32:00;;;;;;;7.90;2.90;;;;;;;21.65;33.70;100432.61;218248;1254;139232;-69
2023/05/26 15:37:04;;;;;;;5.30;2.30;;;;;;;21.40;34.05;100429.94;217686;1256;139518;-71
2023/05/26 15:42:11;;;;;;;17.10;3.40;;;;;;;21.21;34.52;100428.08;218057;1254;139619;-69
2023/05/26 15:47:20;;;;;;;5.20;3.00;;;;;;;21.18;34.77;100427.98;218121;1254;139842;-72
2023/05/26 15:52:22;;;;;;;9.90;3.90;;;;;;;21.18;34.86;100429.17;218104;1257;140390;-71
2023/05/26 15:57:25;;;;;;;8.10;2.80;;;;;;;21.16;35.15;100427.20;218924;1254;139875;-71
2023/05/26 16:02:28;;;;;;;7.50;2.90;;;;;;;21.15;35.27;100416.78;218337;1257;139594;-72
2023/05/26 16:07:30;;;;;;;6.80;3.20;;;;;;;21.14;35.44;100418.09;219554;1258;139969;-71
2023/05/26 16:12:32;;;;;;;7.20;3.30;;;;;;;21.14;35.58;100410.98;219038;1254;140440;-73
2023/05/26 16:17:35;;;;;;;9.70;3.40;;;;;;;21.03;35.67;100416.61;219358;1254;139268;-73
2023/05/26 16:22:39;;;;;;;12.20;2.90;;;;;;;20.90;35.76;100414.95;220401;1255;139473;-73
2023/05/26 16:27:43;;;;;;;13.90;3.40;;;;;;;20.80;35.96;100415.00;220646;1256;140406;-69
2023/05/26 16:32:46;;;;;;;6.80;2.90;;;;;;;20.76;36.19;100417.21;220690;1256;140468;-68
2023/05/26 16:37:50;;;;;;;12.70;3.30;;;;;;;20.65;36.15;100416.11;218270;1257;139184;-70
2023/05/26 16:42:53;;;;;;;8.50;3.50;;;;;;;20.62;36.36;100413.16;218620;1254;139567;-69
2023/05/26 16:47:57;;;;;;;7.20;2.60;;;;;;;20.53;36.46;100414.31;218265;1259;138815;-67
2023/05/26 16:53:01;;;;;;;8.90;3.00;;;;;;;20.41;36.71;100414.36;218056;1254;139801;-72
2023/05/26 16:58:06;;;;;;;7.30;2.80;;;;;;;20.28;36.98;100417.84;219319;1254;140182;-71
2023/05/26 17:03:10;;;;;;;9.20;2.80;;;;;;;20.15;37.16;100420.37;220182;1254;139832;-69
2023/05/26 17:08:15;;;;;;;15.00;4.00;;;;;;;20.05;37.15;100424.34;220577;1254;139491;-66
2023/05/26 17:13:21;;;;;;;7.70;3.10;;;;;;;19.97;37.26;100430.66;217959;1254;140395;-65
2023/05/26 17:18:25;;;;;;;8.10;3.20;;;;;;;19.89;37.56;100431.26;217986;1254;139395;-71
2023/05/26 17:23:29;;;;;;;12.40;3.20;;;;;;;19.76;37.50;100434.64;218666;1258;138853;-71
2023/05/26 17:28:35;;;;;;;7.70;3.30;;;;;;;19.60;37.49;100436.70;218703;1257;140792;-70
2023/05/26 17:33:39;;;;;;;7.40;2.60;;;;;;;19.43;37.65;100441.29;218393;1254;139563;-71
2023/05/26 17:38:43;;;;;;;6.10;3.30;;;;;;;19.24;37.71;100445.40;218991;1254;140148;-71
2023/05/26 17:43:46;;;;;;;16.80;4.20;;;;;;;19.04;38.09;100446.03;219104;1257;139931;-69
2023/05/26 17:48:50;;;;;;;16.40;3.80;;;;;;;18.89;38.48;100447.58;219539;1257;139800;-71
2023/05/26 17:53:54;;;;;;;5.20;2.70;;;;;;;18.74;38.69;100456.60;218610;1257;139610;-72
2023/05/26 17:58:56;;;;;;;6.90;3.70;;;;;;;18.58;38.88;100454.94;218836;1258;140052;-69
2023/05/26 18:04:00;;;;;;;11.10;3.60;;;;;;;18.45;39.16;100458.95;219443;1253;140291;-71
2023/05/26 18:09:03;;;;;;;17.80;4.20;;;;;;;18.27;39.54;100461.97;220092;1257;140573;-70
2023/05/26 18:14:05;;;;;;;7.10;3.70;;;;;;;18.10;39.90;100466.90;219678;1255;139182;-71
2023/05/26 18:19:09;;;;;;;9.50;3.60;;;;;;;17.92;40.23;100469.77;219830;1258;139273;-72
2023/05/26 18:24:13;;;;;;;9.60;3.20;;;;;;;17.73;40.87;100474.92;218265;1259;140067;-70
2023/05/26 18:29:17;;;;;;;8.60;3.80;;;;;;;17.52;41.16;100474.90;220818;1254;139412;-72
2023/05/26 18:34:21;;;;;;;8.00;3.00;;;;;;;17.31;41.97;100481.44;219252;1254;139508;-71
2023/05/26 18:39:30;;;;;;;8.20;2.60;;;;;;;17.09;42.42;100486.73;219910;1258;139007;-70
2023/05/26 18:44:33;;;;;;;9.00;3.10;;;;;;;16.85;42.74;100494.05;220419;1254;140002;-72
2023/05/26 18:49:35;;;;;;;6.80;2.70;;;;;;;16.61;43.28;100489.73;218227;1254;140036;-71
2023/05/26 18:54:42;;;;;;;8.70;3.10;;;;;;;16.35;43.97;100492.29;219274;1254;140294;-71
2023/05/26 18:59:44;;;;;;;6.10;2.60;;;;;;;16.07;44.63;100499.16;218201;1254;139756;-70
2023/05/26 19:04:47;;;;;;;6.30;4.00;;;;;;;15.81;45.21;100510.95;218871;1254;139105;-70
2023/05/26 19:09:50;;;;;;;9.60;3.90;;;;;;;15.58;45.64;100516.17;218212;1253;139037;-70
2023/05/26 19:14:54;;;;;;;8.40;3.30;;;;;;;15.35;46.09;100515.20;218138;1254;138442;-70
2023/05/26 19:19:57;;;;;;;8.20;2.90;;;;;;;15.17;46.49;100513.00;218071;1257;141007;-72
2023/05/26 19:24:59;;;;;;;6.80;3.10;;;;;;;14.99;47.20;100515.52;218129;1257;139116;-73
2023/05/26 19:30:07;;;;;;;22.70;3.80;;;;;;;14.79;47.70;100512.77;218349;1257;139652;-73
2023/05/26 19:35:12;;;;;;;10.40;3.40;;;;;;;14.60;48.34;100517.39;218243;1254;139810;-72
2023/05/26 19:40:15;;;;;;;10.20;4.10;;;;;;;14.39;48.85;100521.08;218132;1259;140347;-73
2023/05/26 19:45:19;;;;;;;9.10;3.70;;;;;;;14.22;49.13;100521.83;218300;1259;140365;-73
2023/05/26 19:50:23;;;;;;;6.50;3.70;;;;;;;14.06;49.75;100527.08;218610;1258;139587;-73
2023/05/26 19:55:27;;;;;;;9.90;3.40;;;;;;;13.93;50.25;100529.08;219032;1257;139778;-71
2023/05/26 20:00:32;;;;;;;5.80;3.80;;;;;;;13.78;50.64;100531.94;218255;1257;141306;-70
2023/05/26 20:05:35;;;;;;;7.90;3.70;;;;;;;13.62;51.02;100543.55;218143;1256;139110;-72
2023/05/26 20:10:39;;;;;;;7.60;3.90;;;;;;;13.49;51.68;100546.95;220760;1254;139507;-72
2023/05/26 20:15:43;;;;;;;5.00;3.00;;;;;;;13.36;51.97;100549.03;220580;1254;142497;-71
2023/05/26 20:20:46;;;;;;;18.00;4.40;;;;;;;13.24;52.20;100554.40;220630;1254;139156;-71
2023/05/26 20:25:53;;;;;;;;;;;;;;;13.12;52.60;100553.79;219698;1257;139828;-72
2023/05/26 20:30:56;;;;;;;7.70;4.30;;;;;;;13.00;53.36;100564.24;219162;1258;126257;-70
2023/05/26 20:36:00;;;;;;;12.60;4.40;;;;;;;12.90;53.34;100567.42;217756;1256;139446;-70
2023/05/26 20:41:05;;;;;;;8.00;4.60;;;;;;;12.81;54.03;100577.63;219595;1255;139236;-72
2023/05/26 20:46:10;;;;;;;7.60;4.10;;;;;;;12.67;54.26;100582.84;218038;1254;139091;-69
2023/05/26 20:51:15;;;;;;;10.80;4.80;;;;;;;12.58;54.63;100600.91;218864;1257;140026;-71
2023/05/26 20:56:17;;;;;;;9.70;4.40;;;;;;;12.53;55.06;100611.23;219053;1257;139695;-71
2023/05/26 21:01:20;;;;;;;9.80;5.50;;;;;;;12.50;55.06;100621.23;218810;1256;141446;-69
2023/05/26 21:06:24;;;;;;;13.90;4.90;;;;;;;12.53;55.17;100634.92;218601;1257;141033;-71
2023/05/26 21:11:26;;;;;;;8.30;4.70;;;;;;;12.60;55.09;100644.95;218040;1259;140177;-70
2023/05/26 21:16:30;;;;;;;8.80;3.90;;;;;;;12.64;55.54;100650.91;218823;1257;140238;-70
2023/05/26 21:21:33;;;;;;;8.50;3.80;;;;;;;12.65;55.33;100649.05;218134;1257;139601;-70
2023/05/26 21:26:38;;;;;;;11.60;3.50;;;;;;;12.65;55.54;100657.15;218321;1259;140579;-70
2023/05/26 21:31:41;;;;;;;9.90;4.10;;;;;;;12.62;55.80;100661.34;218305;1260;139026;-70
2023/05/26 21:36:47;;;;;;;8.70;3.50;;;;;;;12.57;55.96;100671.25;218357;1254;139243;-67
2023/05/26 21:41:50;;;;;;;9.60;3.50;;;;;;;12.50;56.21;100675.41;218328;1257;139063;-70
2023/05/26 21:46:55;;;;;;;10.20;3.30;;;;;;;12.47;56.50;100678.38;219258;1259;139359;-69
2023/05/26 21:51:58;;;;;;;11.60;4.30;;;;;;;12.44;56.86;100679.93;218575;1254;140538;-70
2023/05/26 21:57:02;;;;;;;14.10;3.90;;;;;;;12.38;56.80;100688.84;219173;1259;525573;-69
2023/05/26 22:02:05;;;;;;;13.50;4.00;;;;;;;12.31;57.15;100689.23;218951;1258;141314;-69
2023/05/26 22:07:11;;;;;;;6.80;3.60;;;;;;;12.25;57.35;100696.38;220585;1255;139571;-70
2023/05/26 22:12:15;;;;;;;7.30;3.00;;;;;;;12.21;57.34;100703.23;220417;1256;139758;-71
2023/05/26 22:17:18;;;;;;;8.20;3.40;;;;;;;12.18;57.38;100701.08;220007;1257;139321;-69
2023/05/26 22:22:22;;;;;;;11.10;3.90;;;;;;;12.12;57.53;100703.27;219810;1255;139566;-71
2023/05/26 22:27:26;;;;;;;7.80;3.80;;;;;;;12.07;57.54;100703.85;218419;1257;139914;-70
2023/05/26 22:32:29;;;;;;;14.60;3.80;;;;;;;11.97;57.66;100706.20;219188;1255;139449;-69
2023/05/26 22:37:33;;;;;;;12.70;4.10;;;;;;;11.84;57.96;100706.98;218943;1255;140181;-71
2023/05/26 22:42:36;;;;;;;6.80;3.20;;;;;;;11.72;58.10;100713.46;218946;1254;140115;-70
2023/05/26 22:47:41;;;;;;;14.80;3.70;;;;;;;11.58;58.37;100711.94;218485;1261;139783;-70
2023/05/26 22:52:44;;;;;;;10.70;4.00;;;;;;;11.41;58.55;100714.81;218135;1259;139404;-70
2023/05/26 22:57:48;;;;;;;6.70;3.00;;;;;;;11.28;58.93;100721.98;218691;1259;140070;-70
2023/05/26 23:02:51;;;;;;;14.60;5.10;;;;;;;11.11;59.05;100726.26;218124;1254;139906;-70